sensor_id;sensor_type;location;lat;lon;timestamp;P1;durP1;ratioP1;P2;durP2;ratioP2
54269;SDS011;40181;51.560;13.000;2022-07-23T00:01:27;4.95;;;2.75;;
54269;SDS011;40181;51.560;13.000;2022-07-23T00:03:59;3.88;;;2.67;;
54269;SDS011;40181;51.560;13.000;2022-07-23T00:06:31;5.38;;;3.03;;
54269;SDS011;40181;51.560;13.000;2022-07-23T00:09:05;6.57;;;2.88;;
54269;SDS011;40181;51.560;13.000;2022-07-23T00:11:37;2.97;;;2.33;;
54269;SDS011;40181;51.560;13.000;2022-07-23T00:14:10;3.83;;;2.38;;
54269;SDS011;40181;51.560;13.000;2022-07-23T00:16:42;3.92;;;2.83;;
54269;SDS011;40181;51.560;13.000;2022-07-23T00:19:14;3.28;;;2.25;;
54269;SDS011;40181;51.560;13.000;2022-07-23T00:21:46;5.18;;;3.28;;
54269;SDS011;40181;51.560;13.000;2022-07-23T00:24:20;3.25;;;2.33;;
54269;SDS011;40181;51.560;13.000;2022-07-23T00:26:52;4.20;;;2.95;;
54269;SDS011;40181;51.560;13.000;2022-07-23T00:29:24;3.00;;;2.30;;
54269;SDS011;40181;51.560;13.000;2022-07-23T00:31:56;2.72;;;2.10;;
54269;SDS011;40181;51.560;13.000;2022-07-23T00:34:28;3.95;;;2.55;;
54269;SDS011;40181;51.560;13.000;2022-07-23T00:37:00;2.15;;;1.92;;
54269;SDS011;40181;51.560;13.000;2022-07-23T00:39:34;3.88;;;2.60;;
54269;SDS011;40181;51.560;13.000;2022-07-23T00:42:06;4.63;;;2.35;;
54269;SDS011;40181;51.560;13.000;2022-07-23T00:44:38;2.67;;;2.10;;
54269;SDS011;40181;51.560;13.000;2022-07-23T00:47:12;3.90;;;2.55;;
54269;SDS011;40181;51.560;13.000;2022-07-23T00:49:44;2.60;;;2.35;;
54269;SDS011;40181;51.560;13.000;2022-07-23T00:52:16;2.88;;;2.40;;
54269;SDS011;40181;51.560;13.000;2022-07-23T00:54:50;4.68;;;2.70;;
54269;SDS011;40181;51.560;13.000;2022-07-23T00:57:23;4.55;;;3.33;;
54269;SDS011;40181;51.560;13.000;2022-07-23T00:59:55;5.57;;;3.10;;
54269;SDS011;40181;51.560;13.000;2022-07-23T01:02:27;2.58;;;2.22;;
54269;SDS011;40181;51.560;13.000;2022-07-23T01:04:59;3.65;;;2.15;;
54269;SDS011;40181;51.560;13.000;2022-07-23T01:07:31;3.58;;;2.90;;
54269;SDS011;40181;51.560;13.000;2022-07-23T01:10:07;3.83;;;2.42;;
54269;SDS011;40181;51.560;13.000;2022-07-23T01:12:52;3.17;;;1.98;;
54269;SDS011;40181;51.560;13.000;2022-07-23T01:15:24;5.72;;;3.92;;
54269;SDS011;40181;51.560;13.000;2022-07-23T01:17:56;3.53;;;2.92;;
54269;SDS011;40181;51.560;13.000;2022-07-23T01:20:28;4.47;;;3.42;;
54269;SDS011;40181;51.560;13.000;2022-07-23T01:23:02;3.58;;;2.65;;
54269;SDS011;40181;51.560;13.000;2022-07-23T01:25:35;3.65;;;2.45;;
54269;SDS011;40181;51.560;13.000;2022-07-23T01:28:06;2.78;;;2.28;;
54269;SDS011;40181;51.560;13.000;2022-07-23T01:30:38;5.78;;;3.45;;
54269;SDS011;40181;51.560;13.000;2022-07-23T01:33:10;2.97;;;2.42;;
54269;SDS011;40181;51.560;13.000;2022-07-23T01:35:42;3.10;;;2.80;;
54269;SDS011;40181;51.560;13.000;2022-07-23T01:38:17;4.18;;;3.10;;
54269;SDS011;40181;51.560;13.000;2022-07-23T01:40:49;4.53;;;2.65;;
54269;SDS011;40181;51.560;13.000;2022-07-23T01:43:21;2.90;;;2.60;;
54269;SDS011;40181;51.560;13.000;2022-07-23T01:45:52;3.60;;;2.50;;
54269;SDS011;40181;51.560;13.000;2022-07-23T01:48:25;2.70;;;2.30;;
54269;SDS011;40181;51.560;13.000;2022-07-23T01:50:57;4.38;;;3.58;;
54269;SDS011;40181;51.560;13.000;2022-07-23T01:53:31;2.95;;;2.58;;
54269;SDS011;40181;51.560;13.000;2022-07-23T01:56:03;3.38;;;3.05;;
54269;SDS011;40181;51.560;13.000;2022-07-23T01:58:35;4.32;;;3.35;;
54269;SDS011;40181;51.560;13.000;2022-07-23T02:01:07;4.60;;;3.25;;
54269;SDS011;40181;51.560;13.000;2022-07-23T02:03:39;7.45;;;3.67;;
54269;SDS011;40181;51.560;13.000;2022-07-23T02:06:11;3.15;;;2.55;;
54269;SDS011;40181;51.560;13.000;2022-07-23T02:08:46;5.57;;;4.88;;
54269;SDS011;40181;51.560;13.000;2022-07-23T02:11:17;12.85;;;3.75;;
54269;SDS011;40181;51.560;13.000;2022-07-23T02:13:49;5.68;;;4.05;;
54269;SDS011;40181;51.560;13.000;2022-07-23T02:16:21;6.35;;;3.88;;
54269;SDS011;40181;51.560;13.000;2022-07-23T02:18:53;3.40;;;3.10;;
54269;SDS011;40181;51.560;13.000;2022-07-23T02:21:25;4.75;;;3.15;;
54269;SDS011;40181;51.560;13.000;2022-07-23T02:23:59;4.18;;;3.40;;
54269;SDS011;40181;51.560;13.000;2022-07-23T02:26:31;7.43;;;3.03;;
54269;SDS011;40181;51.560;13.000;2022-07-23T02:29:03;4.50;;;3.00;;
54269;SDS011;40181;51.560;13.000;2022-07-23T02:31:36;6.57;;;3.20;;
54269;SDS011;40181;51.560;13.000;2022-07-23T02:34:08;7.28;;;3.35;;
54269;SDS011;40181;51.560;13.000;2022-07-23T02:36:39;4.47;;;2.97;;
54269;SDS011;40181;51.560;13.000;2022-07-23T02:39:14;4.10;;;2.70;;
54269;SDS011;40181;51.560;13.000;2022-07-23T02:41:46;10.13;;;4.13;;
54269;SDS011;40181;51.560;13.000;2022-07-23T02:44:18;5.38;;;3.70;;
54269;SDS011;40181;51.560;13.000;2022-07-23T02:46:50;4.10;;;2.78;;
54269;SDS011;40181;51.560;13.000;2022-07-23T02:49:22;4.53;;;3.55;;
54269;SDS011;40181;51.560;13.000;2022-07-23T02:51:54;3.78;;;3.20;;
54269;SDS011;40181;51.560;13.000;2022-07-23T02:54:29;5.28;;;3.63;;
54269;SDS011;40181;51.560;13.000;2022-07-23T02:57:01;3.83;;;2.63;;
54269;SDS011;40181;51.560;13.000;2022-07-23T02:59:33;5.63;;;4.38;;
54269;SDS011;40181;51.560;13.000;2022-07-23T03:02:04;5.07;;;3.97;;
54269;SDS011;40181;51.560;13.000;2022-07-23T03:04:36;8.70;;;5.20;;
54269;SDS011;40181;51.560;13.000;2022-07-23T03:07:09;5.72;;;4.20;;
54269;SDS011;40181;51.560;13.000;2022-07-23T03:09:44;4.70;;;3.95;;
54269;SDS011;40181;51.560;13.000;2022-07-23T03:12:16;5.03;;;3.97;;
54269;SDS011;40181;51.560;13.000;2022-07-23T03:14:48;6.00;;;3.85;;
54269;SDS011;40181;51.560;13.000;2022-07-23T03:17:19;3.55;;;3.15;;
54269;SDS011;40181;51.560;13.000;2022-07-23T03:19:51;5.57;;;3.83;;
54269;SDS011;40181;51.560;13.000;2022-07-23T03:22:23;6.22;;;4.13;;
54269;SDS011;40181;51.560;13.000;2022-07-23T03:24:58;4.80;;;3.33;;
54269;SDS011;40181;51.560;13.000;2022-07-23T03:27:30;5.18;;;3.45;;
54269;SDS011;40181;51.560;13.000;2022-07-23T03:30:02;3.78;;;3.22;;
54269;SDS011;40181;51.560;13.000;2022-07-23T03:32:34;6.88;;;3.65;;
54269;SDS011;40181;51.560;13.000;2022-07-23T03:35:07;6.43;;;3.92;;
54269;SDS011;40181;51.560;13.000;2022-07-23T03:37:39;5.60;;;3.50;;
54269;SDS011;40181;51.560;13.000;2022-07-23T03:40:14;6.53;;;3.92;;
54269;SDS011;40181;51.560;13.000;2022-07-23T03:42:46;4.60;;;3.53;;
54269;SDS011;40181;51.560;13.000;2022-07-23T03:45:18;5.03;;;3.38;;
54269;SDS011;40181;51.560;13.000;2022-07-23T03:47:50;4.78;;;3.88;;
54269;SDS011;40181;51.560;13.000;2022-07-23T03:50:22;5.72;;;4.20;;
54269;SDS011;40181;51.560;13.000;2022-07-23T03:52:54;5.22;;;4.00;;
54269;SDS011;40181;51.560;13.000;2022-07-23T03:55:28;6.18;;;3.85;;
54269;SDS011;40181;51.560;13.000;2022-07-23T03:58:00;5.22;;;3.97;;
54269;SDS011;40181;51.560;13.000;2022-07-23T04:00:33;6.47;;;4.35;;
54269;SDS011;40181;51.560;13.000;2022-07-23T04:03:04;5.53;;;3.72;;
54269;SDS011;40181;51.560;13.000;2022-07-23T04:05:36;6.35;;;3.60;;
54269;SDS011;40181;51.560;13.000;2022-07-23T04:08:08;5.95;;;4.15;;
54269;SDS011;40181;51.560;13.000;2022-07-23T04:10:43;6.15;;;4.25;;
54269;SDS011;40181;51.560;13.000;2022-07-23T04:13:15;4.45;;;3.33;;
54269;SDS011;40181;51.560;13.000;2022-07-23T04:15:47;12.50;;;4.93;;
54269;SDS011;40181;51.560;13.000;2022-07-23T04:18:19;7.80;;;4.50;;
54269;SDS011;40181;51.560;13.000;2022-07-23T04:20:51;4.95;;;3.45;;
54269;SDS011;40181;51.560;13.000;2022-07-23T04:23:23;5.63;;;3.70;;
54269;SDS011;40181;51.560;13.000;2022-07-23T04:25:58;6.63;;;4.53;;
54269;SDS011;40181;51.560;13.000;2022-07-23T04:28:30;6.63;;;3.83;;
54269;SDS011;40181;51.560;13.000;2022-07-23T04:31:01;7.32;;;4.55;;
54269;SDS011;40181;51.560;13.000;2022-07-23T04:33:33;7.32;;;4.32;;
54269;SDS011;40181;51.560;13.000;2022-07-23T04:36:05;4.90;;;3.85;;
54269;SDS011;40181;51.560;13.000;2022-07-23T04:38:38;5.65;;;3.45;;
54269;SDS011;40181;51.560;13.000;2022-07-23T04:41:12;6.90;;;4.65;;
54269;SDS011;40181;51.560;13.000;2022-07-23T04:43:44;5.35;;;4.30;;
54269;SDS011;40181;51.560;13.000;2022-07-23T04:46:16;7.80;;;4.28;;
54269;SDS011;40181;51.560;13.000;2022-07-23T04:48:48;4.35;;;3.45;;
54269;SDS011;40181;51.560;13.000;2022-07-23T04:51:20;5.65;;;4.10;;
54269;SDS011;40181;51.560;13.000;2022-07-23T04:53:54;6.78;;;4.28;;
54269;SDS011;40181;51.560;13.000;2022-07-23T04:56:28;6.75;;;3.40;;
54269;SDS011;40181;51.560;13.000;2022-07-23T04:59:00;6.97;;;3.78;;
54269;SDS011;40181;51.560;13.000;2022-07-23T05:01:32;8.70;;;3.90;;
54269;SDS011;40181;51.560;13.000;2022-07-23T05:04:04;5.50;;;3.22;;
54269;SDS011;40181;51.560;13.000;2022-07-23T05:06:36;5.32;;;4.18;;
54269;SDS011;40181;51.560;13.000;2022-07-23T05:09:08;7.00;;;4.43;;
54269;SDS011;40181;51.560;13.000;2022-07-23T05:11:42;5.07;;;3.55;;
54269;SDS011;40181;51.560;13.000;2022-07-23T05:14:14;7.00;;;4.78;;
54269;SDS011;40181;51.560;13.000;2022-07-23T05:16:46;4.00;;;3.35;;
54269;SDS011;40181;51.560;13.000;2022-07-23T05:19:18;6.82;;;3.95;;
54269;SDS011;40181;51.560;13.000;2022-07-23T05:21:50;4.13;;;2.95;;
54269;SDS011;40181;51.560;13.000;2022-07-23T05:24:22;4.65;;;3.33;;
54269;SDS011;40181;51.560;13.000;2022-07-23T05:26:56;7.57;;;4.40;;
54269;SDS011;40181;51.560;13.000;2022-07-23T05:29:28;5.70;;;3.42;;
54269;SDS011;40181;51.560;13.000;2022-07-23T05:32:00;4.60;;;3.40;;
54269;SDS011;40181;51.560;13.000;2022-07-23T05:34:32;3.58;;;2.63;;
54269;SDS011;40181;51.560;13.000;2022-07-23T05:37:05;4.78;;;3.30;;
54269;SDS011;40181;51.560;13.000;2022-07-23T05:39:37;7.85;;;4.72;;
54269;SDS011;40181;51.560;13.000;2022-07-23T05:42:11;5.72;;;3.35;;
54269;SDS011;40181;51.560;13.000;2022-07-23T05:44:43;6.95;;;4.03;;
54269;SDS011;40181;51.560;13.000;2022-07-23T05:47:15;3.65;;;2.83;;
54269;SDS011;40181;51.560;13.000;2022-07-23T05:49:47;4.70;;;3.28;;
54269;SDS011;40181;51.560;13.000;2022-07-23T05:52:19;8.48;;;3.85;;
54269;SDS011;40181;51.560;13.000;2022-07-23T05:54:51;5.78;;;3.72;;
54269;SDS011;40181;51.560;13.000;2022-07-23T05:57:25;4.57;;;3.00;;
54269;SDS011;40181;51.560;13.000;2022-07-23T05:59:57;2.55;;;1.85;;
54269;SDS011;40181;51.560;13.000;2022-07-23T06:02:29;8.95;;;2.97;;
54269;SDS011;40181;51.560;13.000;2022-07-23T06:05:01;4.30;;;2.85;;
54269;SDS011;40181;51.560;13.000;2022-07-23T06:07:33;3.10;;;1.83;;
54269;SDS011;40181;51.560;13.000;2022-07-23T06:10:05;13.25;;;3.38;;
54269;SDS011;40181;51.560;13.000;2022-07-23T06:12:41;4.15;;;2.97;;
54269;SDS011;40181;51.560;13.000;2022-07-23T06:15:13;5.15;;;2.78;;
54269;SDS011;40181;51.560;13.000;2022-07-23T06:17:45;6.88;;;3.10;;
54269;SDS011;40181;51.560;13.000;2022-07-23T06:20:17;6.20;;;4.35;;
54269;SDS011;40181;51.560;13.000;2022-07-23T06:22:49;5.43;;;3.55;;
54269;SDS011;40181;51.560;13.000;2022-07-23T06:25:21;4.15;;;2.20;;
54269;SDS011;40181;51.560;13.000;2022-07-23T06:27:55;4.10;;;2.45;;
54269;SDS011;40181;51.560;13.000;2022-07-23T06:30:27;4.05;;;2.53;;
54269;SDS011;40181;51.560;13.000;2022-07-23T06:32:59;4.50;;;3.65;;
54269;SDS011;40181;51.560;13.000;2022-07-23T06:35:31;3.92;;;2.13;;
54269;SDS011;40181;51.560;13.000;2022-07-23T06:38:03;3.63;;;2.38;;
54269;SDS011;40181;51.560;13.000;2022-07-23T06:40:35;4.63;;;3.08;;
54269;SDS011;40181;51.560;13.000;2022-07-23T06:43:10;6.55;;;3.75;;
54269;SDS011;40181;51.560;13.000;2022-07-23T06:45:42;4.47;;;3.35;;
54269;SDS011;40181;51.560;13.000;2022-07-23T06:48:14;6.40;;;3.17;;
54269;SDS011;40181;51.560;13.000;2022-07-23T06:50:45;5.38;;;3.03;;
54269;SDS011;40181;51.560;13.000;2022-07-23T06:53:17;5.68;;;2.28;;
54269;SDS011;40181;51.560;13.000;2022-07-23T06:55:49;3.95;;;2.63;;
54269;SDS011;40181;51.560;13.000;2022-07-23T06:58:24;5.50;;;3.38;;
54269;SDS011;40181;51.560;13.000;2022-07-23T07:00:56;4.90;;;3.55;;
54269;SDS011;40181;51.560;13.000;2022-07-23T07:03:28;4.78;;;2.85;;
54269;SDS011;40181;51.560;13.000;2022-07-23T07:05:59;5.75;;;3.60;;
54269;SDS011;40181;51.560;13.000;2022-07-23T07:08:31;3.53;;;2.28;;
54269;SDS011;40181;51.560;13.000;2022-07-23T07:11:03;5.95;;;3.47;;
54269;SDS011;40181;51.560;13.000;2022-07-23T07:13:38;8.32;;;3.53;;
54269;SDS011;40181;51.560;13.000;2022-07-23T07:16:10;5.13;;;3.45;;
54269;SDS011;40181;51.560;13.000;2022-07-23T07:18:42;6.47;;;3.53;;
54269;SDS011;40181;51.560;13.000;2022-07-23T07:21:14;4.57;;;3.03;;
54269;SDS011;40181;51.560;13.000;2022-07-23T07:23:46;2.88;;;2.17;;
54269;SDS011;40181;51.560;13.000;2022-07-23T07:26:18;8.88;;;3.28;;
54269;SDS011;40181;51.560;13.000;2022-07-23T07:28:53;6.10;;;3.35;;
54269;SDS011;40181;51.560;13.000;2022-07-23T07:31:25;6.05;;;3.47;;
54269;SDS011;40181;51.560;13.000;2022-07-23T07:33:57;4.30;;;3.10;;
54269;SDS011;40181;51.560;13.000;2022-07-23T07:36:30;4.80;;;3.00;;
54269;SDS011;40181;51.560;13.000;2022-07-23T07:39:02;4.35;;;2.72;;
54269;SDS011;40181;51.560;13.000;2022-07-23T07:41:35;8.85;;;3.10;;
54269;SDS011;40181;51.560;13.000;2022-07-23T07:44:10;4.63;;;2.75;;
54269;SDS011;40181;51.560;13.000;2022-07-23T07:46:42;9.85;;;4.05;;
54269;SDS011;40181;51.560;13.000;2022-07-23T07:49:14;4.65;;;2.88;;
54269;SDS011;40181;51.560;13.000;2022-07-23T07:51:46;4.40;;;3.05;;
54269;SDS011;40181;51.560;13.000;2022-07-23T07:54:18;4.90;;;3.30;;
54269;SDS011;40181;51.560;13.000;2022-07-23T07:56:50;5.38;;;3.60;;
54269;SDS011;40181;51.560;13.000;2022-07-23T07:59:24;7.30;;;3.05;;
54269;SDS011;40181;51.560;13.000;2022-07-23T08:01:56;10.90;;;3.05;;
54269;SDS011;40181;51.560;13.000;2022-07-23T08:04:28;5.53;;;3.30;;
54269;SDS011;40181;51.560;13.000;2022-07-23T08:07:00;9.02;;;3.78;;
54269;SDS011;40181;51.560;13.000;2022-07-23T08:09:32;5.35;;;3.15;;
54269;SDS011;40181;51.560;13.000;2022-07-23T08:12:04;6.28;;;4.00;;
54269;SDS011;40181;51.560;13.000;2022-07-23T08:14:39;5.05;;;3.20;;
54269;SDS011;40181;51.560;13.000;2022-07-23T08:17:11;3.60;;;2.88;;
54269;SDS011;40181;51.560;13.000;2022-07-23T08:19:43;6.20;;;3.83;;
54269;SDS011;40181;51.560;13.000;2022-07-23T08:22:15;5.45;;;2.65;;
54269;SDS011;40181;51.560;13.000;2022-07-23T08:24:46;4.28;;;3.50;;
54269;SDS011;40181;51.560;13.000;2022-07-23T08:27:18;5.78;;;3.42;;
54269;SDS011;40181;51.560;13.000;2022-07-23T08:29:53;6.60;;;3.92;;
54269;SDS011;40181;51.560;13.000;2022-07-23T08:32:25;4.50;;;3.88;;
54269;SDS011;40181;51.560;13.000;2022-07-23T08:34:57;5.63;;;3.78;;
54269;SDS011;40181;51.560;13.000;2022-07-23T08:37:29;5.30;;;3.83;;
54269;SDS011;40181;51.560;13.000;2022-07-23T08:40:01;5.30;;;4.43;;
54269;SDS011;40181;51.560;13.000;2022-07-23T08:42:33;6.50;;;4.20;;
54269;SDS011;40181;51.560;13.000;2022-07-23T08:45:08;3.78;;;2.75;;
54269;SDS011;40181;51.560;13.000;2022-07-23T08:47:40;6.45;;;4.25;;
54269;SDS011;40181;51.560;13.000;2022-07-23T08:50:12;5.85;;;3.75;;
54269;SDS011;40181;51.560;13.000;2022-07-23T08:52:45;7.55;;;3.13;;
54269;SDS011;40181;51.560;13.000;2022-07-23T08:55:18;5.45;;;4.80;;
54269;SDS011;40181;51.560;13.000;2022-07-23T08:57:52;5.03;;;3.92;;
54269;SDS011;40181;51.560;13.000;2022-07-23T09:00:27;5.97;;;4.05;;
54269;SDS011;40181;51.560;13.000;2022-07-23T09:02:59;7.47;;;5.03;;
54269;SDS011;40181;51.560;13.000;2022-07-23T09:05:31;5.97;;;3.65;;
54269;SDS011;40181;51.560;13.000;2022-07-23T09:08:06;5.43;;;3.75;;
54269;SDS011;40181;51.560;13.000;2022-07-23T09:10:47;4.63;;;3.65;;
54269;SDS011;40181;51.560;13.000;2022-07-23T09:13:27;6.70;;;4.00;;
54269;SDS011;40181;51.560;13.000;2022-07-23T09:16:10;5.88;;;5.28;;
54269;SDS011;40181;51.560;13.000;2022-07-23T09:18:44;5.93;;;4.65;;
54269;SDS011;40181;51.560;13.000;2022-07-23T09:21:19;5.38;;;4.75;;
54269;SDS011;40181;51.560;13.000;2022-07-23T09:23:55;7.13;;;4.88;;
54269;SDS011;40181;51.560;13.000;2022-07-23T09:26:30;5.40;;;4.30;;
54269;SDS011;40181;51.560;13.000;2022-07-23T09:29:07;7.18;;;5.15;;
54269;SDS011;40181;51.560;13.000;2022-07-23T09:31:45;6.03;;;5.43;;
54269;SDS011;40181;51.560;13.000;2022-07-23T09:34:19;7.22;;;4.22;;
54269;SDS011;40181;51.560;13.000;2022-07-23T09:36:53;7.57;;;4.20;;
54269;SDS011;40181;51.560;13.000;2022-07-23T09:39:27;8.48;;;5.03;;
54269;SDS011;40181;51.560;13.000;2022-07-23T09:42:12;7.00;;;4.57;;
54269;SDS011;40181;51.560;13.000;2022-07-23T09:44:46;4.30;;;3.53;;
54269;SDS011;40181;51.560;13.000;2022-07-23T09:47:22;6.03;;;4.43;;
54269;SDS011;40181;51.560;13.000;2022-07-23T09:49:59;5.72;;;4.47;;
54269;SDS011;40181;51.560;13.000;2022-07-23T09:52:35;10.73;;;3.90;;
54269;SDS011;40181;51.560;13.000;2022-07-23T09:55:08;6.43;;;3.92;;
54269;SDS011;40181;51.560;13.000;2022-07-23T09:57:42;6.60;;;4.40;;
54269;SDS011;40181;51.560;13.000;2022-07-23T10:00:18;5.50;;;3.28;;
54269;SDS011;40181;51.560;13.000;2022-07-23T10:02:52;6.70;;;4.15;;
54269;SDS011;40181;51.560;13.000;2022-07-23T10:05:26;5.47;;;3.78;;
54269;SDS011;40181;51.560;13.000;2022-07-23T10:08:00;5.20;;;3.90;;
54269;SDS011;40181;51.560;13.000;2022-07-23T10:10:33;6.72;;;4.35;;
54269;SDS011;40181;51.560;13.000;2022-07-23T10:13:05;6.25;;;4.00;;
54269;SDS011;40181;51.560;13.000;2022-07-23T10:15:56;5.13;;;3.80;;
54269;SDS011;40181;51.560;13.000;2022-07-23T10:18:31;5.35;;;4.47;;
54269;SDS011;40181;51.560;13.000;2022-07-23T10:21:03;6.00;;;4.43;;
54269;SDS011;40181;51.560;13.000;2022-07-23T10:23:39;4.20;;;3.58;;
54269;SDS011;40181;51.560;13.000;2022-07-23T10:26:17;6.40;;;5.13;;
54269;SDS011;40181;51.560;13.000;2022-07-23T10:28:58;11.15;;;5.38;;
54269;SDS011;40181;51.560;13.000;2022-07-23T10:31:41;5.35;;;4.18;;
54269;SDS011;40181;51.560;13.000;2022-07-23T10:34:29;4.75;;;4.07;;
54269;SDS011;40181;51.560;13.000;2022-07-23T10:37:12;5.78;;;4.32;;
54269;SDS011;40181;51.560;13.000;2022-07-23T10:40:03;7.72;;;6.30;;
54269;SDS011;40181;51.560;13.000;2022-07-23T10:42:42;4.60;;;3.75;;
54269;SDS011;40181;51.560;13.000;2022-07-23T10:45:23;6.97;;;4.53;;
54269;SDS011;40181;51.560;13.000;2022-07-23T10:48:11;5.38;;;4.47;;
54269;SDS011;40181;51.560;13.000;2022-07-23T11:02:39;11.13;;;6.90;;
54269;SDS011;40181;51.560;13.000;2022-07-23T11:05:13;7.65;;;6.07;;
54269;SDS011;40181;51.560;13.000;2022-07-23T11:10:52;6.50;;;5.15;;
54269;SDS011;40181;51.560;13.000;2022-07-23T11:13:30;8.82;;;6.35;;
54269;SDS011;40181;51.560;13.000;2022-07-23T11:16:24;8.65;;;6.53;;
54269;SDS011;40181;51.560;13.000;2022-07-23T11:19:03;7.32;;;5.03;;
54269;SDS011;40181;51.560;13.000;2022-07-23T11:21:42;7.07;;;6.10;;
54269;SDS011;40181;51.560;13.000;2022-07-23T11:24:21;7.03;;;4.53;;
54269;SDS011;40181;51.560;13.000;2022-07-23T11:26:59;6.68;;;5.97;;
54269;SDS011;40181;51.560;13.000;2022-07-23T11:32:35;10.10;;;5.93;;
54269;SDS011;40181;51.560;13.000;2022-07-23T11:38:03;11.85;;;6.80;;
54269;SDS011;40181;51.560;13.000;2022-07-23T11:40:39;5.90;;;5.18;;
54269;SDS011;40181;51.560;13.000;2022-07-23T11:43:11;6.55;;;4.70;;
54269;SDS011;40181;51.560;13.000;2022-07-23T11:45:44;7.45;;;4.57;;
54269;SDS011;40181;51.560;13.000;2022-07-23T11:48:18;7.10;;;4.68;;
54269;SDS011;40181;51.560;13.000;2022-07-23T11:50:52;6.10;;;4.70;;
54269;SDS011;40181;51.560;13.000;2022-07-23T11:53:25;5.57;;;4.30;;
54269;SDS011;40181;51.560;13.000;2022-07-23T11:56:05;7.45;;;5.85;;
54269;SDS011;40181;51.560;13.000;2022-07-23T11:58:38;6.33;;;3.60;;
54269;SDS011;40181;51.560;13.000;2022-07-23T12:01:25;4.80;;;4.15;;
54269;SDS011;40181;51.560;13.000;2022-07-23T12:03:57;6.45;;;4.82;;
54269;SDS011;40181;51.560;13.000;2022-07-23T12:06:29;6.55;;;4.53;;
54269;SDS011;40181;51.560;13.000;2022-07-23T12:09:00;7.97;;;4.00;;
54269;SDS011;40181;51.560;13.000;2022-07-23T12:11:35;5.78;;;5.18;;
54269;SDS011;40181;51.560;13.000;2022-07-23T12:14:08;5.75;;;3.67;;
54269;SDS011;40181;51.560;13.000;2022-07-23T12:16:41;6.35;;;4.80;;
54269;SDS011;40181;51.560;13.000;2022-07-23T12:19:13;3.90;;;3.25;;
54269;SDS011;40181;51.560;13.000;2022-07-23T12:43:18;5.32;;;2.80;;
54269;SDS011;40181;51.560;13.000;2022-07-23T12:45:50;3.92;;;3.20;;
54269;SDS011;40181;51.560;13.000;2022-07-23T12:48:22;2.38;;;2.17;;
54269;SDS011;40181;51.560;13.000;2022-07-23T12:50:57;4.53;;;2.67;;
54269;SDS011;40181;51.560;13.000;2022-07-23T12:53:29;5.97;;;3.45;;
54269;SDS011;40181;51.560;13.000;2022-07-23T12:56:02;4.70;;;2.60;;
54269;SDS011;40181;51.560;13.000;2022-07-23T12:58:43;3.47;;;2.63;;
54269;SDS011;40181;51.560;13.000;2022-07-23T13:03:59;4.85;;;3.65;;
54269;SDS011;40181;51.560;13.000;2022-07-23T13:06:32;6.90;;;3.13;;
54269;SDS011;40181;51.560;13.000;2022-07-23T13:09:05;6.97;;;3.08;;
54269;SDS011;40181;51.560;13.000;2022-07-23T13:11:37;6.78;;;3.63;;
54269;SDS011;40181;51.560;13.000;2022-07-23T13:14:09;10.80;;;3.90;;
54269;SDS011;40181;51.560;13.000;2022-07-23T13:16:39;3.58;;;2.25;;
54269;SDS011;40181;51.560;13.000;2022-07-23T13:19:09;3.97;;;2.45;;
54269;SDS011;40181;51.560;13.000;2022-07-23T13:21:39;4.90;;;3.38;;
54269;SDS011;40181;51.560;13.000;2022-07-23T13:24:10;2.85;;;1.90;;
54269;SDS011;40181;51.560;13.000;2022-07-23T13:26:40;3.00;;;1.90;;
54269;SDS011;40181;51.560;13.000;2022-07-23T13:29:14;5.03;;;3.00;;
54269;SDS011;40181;51.560;13.000;2022-07-23T13:31:43;3.55;;;2.40;;
54269;SDS011;40181;51.560;13.000;2022-07-23T13:34:12;5.03;;;2.90;;
54269;SDS011;40181;51.560;13.000;2022-07-23T13:36:41;6.25;;;3.33;;
54269;SDS011;40181;51.560;13.000;2022-07-23T13:39:10;3.72;;;2.10;;
54269;SDS011;40181;51.560;13.000;2022-07-23T13:41:39;3.13;;;2.20;;
54269;SDS011;40181;51.560;13.000;2022-07-23T13:44:09;10.88;;;2.95;;
54269;SDS011;40181;51.560;13.000;2022-07-23T13:46:40;5.00;;;2.40;;
54269;SDS011;40181;51.560;13.000;2022-07-23T13:49:09;4.07;;;1.92;;
54269;SDS011;40181;51.560;13.000;2022-07-23T13:51:38;4.20;;;3.33;;
54269;SDS011;40181;51.560;13.000;2022-07-23T13:54:07;5.07;;;2.58;;
54269;SDS011;40181;51.560;13.000;2022-07-23T13:56:36;3.20;;;2.45;;
54269;SDS011;40181;51.560;13.000;2022-07-23T13:59:05;4.90;;;3.50;;
54269;SDS011;40181;51.560;13.000;2022-07-23T14:01:36;3.97;;;2.92;;
54269;SDS011;40181;51.560;13.000;2022-07-23T14:04:07;6.72;;;3.10;;
54269;SDS011;40181;51.560;13.000;2022-07-23T14:06:36;7.43;;;3.33;;
54269;SDS011;40181;51.560;13.000;2022-07-23T14:09:05;3.35;;;2.22;;
54269;SDS011;40181;51.560;13.000;2022-07-23T14:11:34;3.63;;;2.88;;
54269;SDS011;40181;51.560;13.000;2022-07-23T14:14:04;2.67;;;2.25;;
54269;SDS011;40181;51.560;13.000;2022-07-23T14:16:33;4.57;;;2.28;;
54269;SDS011;40181;51.560;13.000;2022-07-23T14:19:05;9.32;;;2.42;;
54269;SDS011;40181;51.560;13.000;2022-07-23T14:21:34;4.55;;;3.28;;
54269;SDS011;40181;51.560;13.000;2022-07-23T14:24:03;3.80;;;2.95;;
54269;SDS011;40181;51.560;13.000;2022-07-23T14:26:33;5.07;;;3.03;;
54269;SDS011;40181;51.560;13.000;2022-07-23T14:29:02;3.45;;;2.55;;
54269;SDS011;40181;51.560;13.000;2022-07-23T14:31:31;3.75;;;2.17;;
54269;SDS011;40181;51.560;13.000;2022-07-23T14:34:00;3.25;;;1.92;;
54269;SDS011;40181;51.560;13.000;2022-07-23T14:36:32;3.78;;;3.15;;
54269;SDS011;40181;51.560;13.000;2022-07-23T14:39:01;6.85;;;3.22;;
54269;SDS011;40181;51.560;13.000;2022-07-23T14:41:33;7.03;;;2.60;;
54269;SDS011;40181;51.560;13.000;2022-07-23T14:44:03;2.93;;;2.20;;
54269;SDS011;40181;51.560;13.000;2022-07-23T14:46:32;4.30;;;2.72;;
54269;SDS011;40181;51.560;13.000;2022-07-23T14:49:02;2.95;;;2.17;;
54269;SDS011;40181;51.560;13.000;2022-07-23T14:51:34;7.03;;;3.47;;
54269;SDS011;40181;51.560;13.000;2022-07-23T14:54:06;5.35;;;3.35;;
54269;SDS011;40181;51.560;13.000;2022-07-23T14:56:35;3.13;;;2.47;;
54269;SDS011;40181;51.560;13.000;2022-07-23T14:59:04;3.47;;;2.22;;
54269;SDS011;40181;51.560;13.000;2022-07-23T15:01:33;3.45;;;2.33;;
54269;SDS011;40181;51.560;13.000;2022-07-23T15:04:03;3.97;;;2.80;;
54269;SDS011;40181;51.560;13.000;2022-07-23T15:06:36;1.95;;;1.77;;
54269;SDS011;40181;51.560;13.000;2022-07-23T15:09:05;3.97;;;2.80;;
54269;SDS011;40181;51.560;13.000;2022-07-23T15:11:35;4.93;;;2.35;;
54269;SDS011;40181;51.560;13.000;2022-07-23T15:14:04;2.40;;;2.13;;
54269;SDS011;40181;51.560;13.000;2022-07-23T15:16:34;4.20;;;2.67;;
54269;SDS011;40181;51.560;13.000;2022-07-23T15:19:03;2.83;;;1.60;;
54269;SDS011;40181;51.560;13.000;2022-07-23T15:21:35;2.90;;;1.98;;
54269;SDS011;40181;51.560;13.000;2022-07-23T15:24:05;8.82;;;3.33;;
54269;SDS011;40181;51.560;13.000;2022-07-23T15:26:34;4.40;;;2.40;;
54269;SDS011;40181;51.560;13.000;2022-07-23T15:29:04;4.05;;;2.83;;
54269;SDS011;40181;51.560;13.000;2022-07-23T15:31:33;3.08;;;1.90;;
54269;SDS011;40181;51.560;13.000;2022-07-23T15:34:02;2.95;;;2.47;;
54269;SDS011;40181;51.560;13.000;2022-07-23T15:36:31;8.65;;;3.05;;
54269;SDS011;40181;51.560;13.000;2022-07-23T15:39:03;6.07;;;3.00;;
54269;SDS011;40181;51.560;13.000;2022-07-23T15:41:33;3.60;;;2.85;;
54269;SDS011;40181;51.560;13.000;2022-07-23T15:44:02;4.45;;;2.72;;
54269;SDS011;40181;51.560;13.000;2022-07-23T15:46:31;2.20;;;1.97;;
54269;SDS011;40181;51.560;13.000;2022-07-23T15:49:01;5.30;;;2.45;;
54269;SDS011;40181;51.560;13.000;2022-07-23T15:51:30;6.22;;;3.10;;